createdAt,value
2019-02-19T00:01:06.462Z,12.33
2019-02-19T00:03:46.337Z,12.37
2019-02-19T00:06:26.333Z,10.07
2019-02-19T00:09:06.446Z,10.00
2019-02-19T00:11:46.501Z,10.53
2019-02-19T00:14:26.557Z,8.97
2019-02-19T00:17:06.640Z,9.87
2019-02-19T00:19:46.729Z,15.20
2019-02-19T00:22:26.764Z,15.60
2019-02-19T00:25:06.611Z,10.63
2019-02-19T00:27:46.727Z,10.70
2019-02-19T00:30:26.816Z,10.70
2019-02-19T00:33:06.835Z,13.70
2019-02-19T00:35:47.000Z,13.90
2019-02-19T00:38:27.010Z,16.03
2019-02-19T00:41:07.215Z,11.43
2019-02-19T00:43:47.159Z,13.03
2019-02-19T00:46:27.256Z,12.80
2019-02-19T00:49:07.240Z,10.80
2019-02-19T00:51:47.375Z,10.67
2019-02-19T00:54:27.228Z,13.20
2019-02-19T00:57:07.559Z,9.00
2019-02-19T00:59:47.627Z,10.17
2019-02-19T01:02:27.600Z,10.77
2019-02-19T01:05:07.637Z,13.33
2019-02-19T01:07:47.809Z,15.73
2019-02-19T01:10:27.911Z,10.47
2019-02-19T01:13:07.893Z,10.30
2019-02-19T01:15:48.037Z,11.13
2019-02-19T01:18:28.221Z,12.70
2019-02-19T01:21:08.309Z,10.87
2019-02-19T01:23:48.513Z,11.20
2019-02-19T01:26:28.398Z,10.40
2019-02-19T01:29:08.650Z,13.20
2019-02-19T01:31:48.843Z,13.57
2019-02-19T01:34:28.933Z,14.20
2019-02-19T01:37:08.858Z,13.40
2019-02-19T01:39:48.937Z,12.50
2019-02-19T01:42:29.091Z,13.40
2019-02-19T01:45:09.054Z,11.80
2019-02-19T01:47:49.003Z,14.07
2019-02-19T01:50:29.045Z,14.93
2019-02-19T01:53:09.272Z,14.33
2019-02-19T01:55:49.111Z,19.57
2019-02-19T01:58:29.335Z,16.30
2019-02-19T02:01:09.385Z,13.17
2019-02-19T02:03:49.380Z,14.87
2019-02-19T02:06:29.442Z,17.10
2019-02-19T02:09:09.504Z,12.90
2019-02-19T02:11:49.352Z,11.93
2019-02-19T02:14:29.435Z,16.20
2019-02-19T02:17:09.361Z,15.73
2019-02-19T02:19:49.313Z,12.43
2019-02-19T02:22:29.229Z,10.07
2019-02-19T02:25:09.265Z,14.87
2019-02-19T02:27:49.058Z,12.57
2019-02-19T02:30:29.473Z,10.30
2019-02-19T02:33:09.327Z,13.03
2019-02-19T02:35:49.384Z,12.37
2019-02-19T02:38:29.315Z,11.17
2019-02-19T02:41:09.397Z,10.87
2019-02-19T02:43:49.528Z,11.10
2019-02-19T02:46:29.505Z,17.20
2019-02-19T02:49:09.595Z,12.67
2019-02-19T02:51:49.511Z,13.50
2019-02-19T02:54:29.695Z,12.77
2019-02-19T02:57:09.747Z,15.93
2019-02-19T02:59:49.589Z,10.83
2019-02-19T03:02:29.527Z,13.10
2019-02-19T03:05:09.699Z,13.50
2019-02-19T03:07:55.592Z,13.10
2019-02-19T03:10:35.733Z,12.80
2019-02-19T03:13:15.835Z,11.90
2019-02-19T03:16:02.235Z,13.23
2019-02-19T03:18:37.939Z,13.97
2019-02-19T03:21:17.711Z,14.63
2019-02-19T03:23:57.847Z,13.00
2019-02-19T03:26:37.660Z,13.93
2019-02-19T03:29:17.715Z,13.97
2019-02-19T03:31:57.618Z,15.13
2019-02-19T03:34:37.763Z,16.70
2019-02-19T03:37:17.817Z,16.93
2019-02-19T03:39:57.869Z,17.20
2019-02-19T03:42:37.791Z,12.63
2019-02-19T03:45:17.889Z,17.77
2019-02-19T03:47:58.151Z,12.90
2019-02-19T03:50:38.164Z,14.83
2019-02-19T03:53:18.224Z,16.13
2019-02-19T03:55:58.105Z,14.63
2019-02-19T03:58:37.948Z,15.13
2019-02-19T04:07:24.716Z,18.03
2019-02-19T04:10:04.659Z,16.73
2019-02-19T04:12:44.856Z,16.97
2019-02-19T04:15:24.930Z,17.43
2019-02-19T04:18:05.340Z,17.83
2019-02-19T04:20:45.355Z,19.87
2019-02-19T04:23:25.338Z,21.03
2019-02-19T04:26:05.588Z,23.20
2019-02-19T04:28:45.720Z,19.77
2019-02-19T04:31:25.658Z,17.67
2019-02-19T04:34:05.749Z,18.60
2019-02-19T04:36:45.651Z,15.67
2019-02-19T04:39:25.890Z,22.37
2019-02-19T04:42:05.873Z,17.60
2019-02-19T04:44:45.891Z,21.83
2019-02-19T04:47:25.878Z,20.20
2019-02-19T04:50:05.741Z,18.13
2019-02-19T04:52:45.909Z,21.40
2019-02-19T04:55:25.830Z,22.50
2019-02-19T04:58:06.084Z,20.97
2019-02-19T05:00:46.255Z,20.43
2019-02-19T05:03:26.522Z,20.90
2019-02-19T05:06:06.414Z,21.53
2019-02-19T05:08:46.597Z,24.80
2019-02-19T05:11:26.573Z,25.07
2019-02-19T05:14:06.825Z,25.63
2019-02-19T05:16:46.918Z,22.10
2019-02-19T05:19:26.940Z,22.03
2019-02-19T05:22:06.814Z,20.27
2019-02-19T05:24:46.997Z,24.13
2019-02-19T05:27:26.875Z,22.97
2019-02-19T05:30:07.080Z,26.60
2019-02-19T05:32:47.155Z,28.63
2019-02-19T05:35:27.183Z,23.70
2019-02-19T05:38:07.260Z,24.70
2019-02-19T05:40:47.334Z,25.80
2019-02-19T05:43:27.198Z,27.43
2019-02-19T05:46:07.601Z,28.00
2019-02-19T05:48:47.645Z,30.20
2019-02-19T05:51:27.629Z,26.90
2019-02-19T05:54:07.492Z,33.23
2019-02-19T05:56:47.440Z,29.47
2019-02-19T05:59:27.609Z,29.23
2019-02-19T06:02:07.668Z,26.33
2019-02-19T06:04:47.521Z,29.87
2019-02-19T06:07:27.355Z,31.17
2019-02-19T06:10:07.212Z,27.13
2019-02-19T06:12:47.080Z,29.30
2019-02-19T06:15:27.219Z,28.90
2019-02-19T06:18:06.976Z,30.73
2019-02-19T06:20:47.046Z,29.23
2019-02-19T06:23:27.262Z,36.57
2019-02-19T06:26:07.389Z,35.77
2019-02-19T06:28:47.365Z,33.00
2019-02-19T06:31:27.527Z,34.90
2019-02-19T06:34:07.266Z,31.27
2019-02-19T06:36:47.354Z,30.63
2019-02-19T06:39:27.316Z,29.47
2019-02-19T06:42:07.569Z,32.57
2019-02-19T06:44:47.637Z,30.53
2019-02-19T06:47:27.621Z,31.80
2019-02-19T06:50:07.835Z,34.67
2019-02-19T06:52:47.751Z,29.57
2019-02-19T06:55:27.648Z,29.67
2019-02-19T06:58:07.708Z,31.40
2019-02-19T07:00:47.505Z,31.43
2019-02-19T07:03:53.199Z,26.30
2019-02-19T07:06:33.677Z,28.03
2019-02-19T07:09:13.593Z,30.97
2019-02-19T07:11:53.563Z,29.77
2019-02-19T07:14:33.663Z,25.73
2019-02-19T07:17:15.776Z,28.10
2019-02-19T07:19:55.608Z,28.53
2019-02-19T07:22:35.681Z,26.53
2019-02-19T07:25:15.819Z,26.90
2019-02-19T07:27:55.805Z,28.20
2019-02-19T07:30:35.859Z,28.63
2019-02-19T07:33:16.025Z,28.63
2019-02-19T07:35:56.033Z,27.50
2019-02-19T07:38:35.928Z,29.23
2019-02-19T07:41:15.983Z,29.80
2019-02-19T07:43:56.044Z,27.33
2019-02-19T07:46:36.002Z,27.03
2019-02-19T07:49:16.038Z,29.23
2019-02-19T07:51:56.192Z,31.37
2019-02-19T07:54:36.104Z,31.23
2019-02-19T07:57:16.242Z,32.73
2019-02-19T07:59:56.104Z,26.70
2019-02-19T08:02:36.234Z,28.67
2019-02-19T08:05:16.180Z,29.97
2019-02-19T08:07:56.212Z,25.50
2019-02-19T08:10:36.240Z,30.47
2019-02-19T08:13:16.277Z,33.40
2019-02-19T08:15:56.279Z,27.07
2019-02-19T08:18:36.360Z,28.83
2019-02-19T08:21:16.516Z,27.57
2019-02-19T08:23:56.504Z,27.30
2019-02-19T08:26:36.527Z,30.33
2019-02-19T08:29:16.504Z,26.27
2019-02-19T08:31:56.376Z,29.03
2019-02-19T08:34:36.328Z,29.47
2019-02-19T08:37:16.395Z,27.00
2019-02-19T08:39:56.235Z,26.80
2019-02-19T08:42:36.128Z,31.97
2019-02-19T08:45:16.288Z,28.10
2019-02-19T08:47:56.121Z,27.50
2019-02-19T08:50:35.981Z,24.57
2019-02-19T08:53:16.079Z,22.83
2019-02-19T08:55:56.172Z,25.47
2019-02-19T08:58:36.085Z,24.47
2019-02-19T09:01:16.043Z,24.80
2019-02-19T09:03:56.163Z,24.20
2019-02-19T09:06:36.179Z,24.20
2019-02-19T09:09:16.244Z,25.60
2019-02-19T09:11:56.131Z,20.50
2019-02-19T09:14:36.055Z,26.23
2019-02-19T09:17:15.877Z,23.60
2019-02-19T09:19:56.032Z,24.80
2019-02-19T09:22:35.970Z,23.57
2019-02-19T09:25:15.932Z,23.50
2019-02-19T09:27:56.053Z,21.10
2019-02-19T09:30:36.109Z,24.73
2019-02-19T09:33:16.111Z,22.70
2019-02-19T09:35:56.276Z,23.23
2019-02-19T09:38:36.285Z,27.07
2019-02-19T09:41:16.433Z,22.60
2019-02-19T09:43:56.557Z,26.33
2019-02-19T09:46:36.659Z,25.87
2019-02-19T09:49:16.672Z,23.20
2019-02-19T09:51:56.744Z,25.97
2019-02-19T09:54:36.750Z,24.93
2019-02-19T09:57:16.985Z,22.17
2019-02-19T09:59:57.095Z,21.63
2019-02-19T10:02:37.245Z,21.43
2019-02-19T10:05:17.288Z,20.37
2019-02-19T10:07:57.246Z,22.00
2019-02-19T10:10:37.435Z,16.50
2019-02-19T10:13:17.403Z,23.70
2019-02-19T10:15:57.347Z,21.97
2019-02-19T10:18:37.459Z,20.40
2019-02-19T10:21:17.336Z,19.40
2019-02-19T10:23:57.191Z,19.33
2019-02-19T10:26:37.282Z,23.67
2019-02-19T10:29:17.356Z,17.70
2019-02-19T10:31:57.473Z,18.90
2019-02-19T10:34:37.537Z,17.30
2019-02-19T10:37:17.579Z,20.27
2019-02-19T10:39:57.595Z,18.23
2019-02-19T10:42:37.558Z,17.37
2019-02-19T10:45:17.700Z,17.33
2019-02-19T10:47:57.761Z,16.50
2019-02-19T10:50:37.892Z,17.07
2019-02-19T10:53:17.731Z,16.20
2019-02-19T10:55:57.717Z,20.17
2019-02-19T10:58:37.710Z,12.40
2019-02-19T11:01:17.713Z,12.17
2019-02-19T11:03:57.785Z,12.67
2019-02-19T11:06:39.073Z,17.40
2019-02-19T11:09:19.177Z,12.73
2019-02-19T11:11:59.043Z,15.67
2019-02-19T11:14:39.130Z,15.93
2019-02-19T11:17:19.904Z,14.73
2019-02-19T11:20:00.184Z,14.40
2019-02-19T11:22:39.915Z,12.23
2019-02-19T11:25:20.035Z,14.47
2019-02-19T11:28:00.101Z,13.10
2019-02-19T11:30:40.205Z,15.73
2019-02-19T11:33:20.372Z,17.03
2019-02-19T11:36:00.616Z,14.00
2019-02-19T11:38:40.661Z,10.33
2019-02-19T11:41:20.726Z,10.00
2019-02-19T11:44:00.615Z,15.33
2019-02-19T11:46:40.645Z,10.23
2019-02-19T11:49:20.790Z,9.90
2019-02-19T11:52:00.872Z,12.60
2019-02-19T11:54:41.000Z,13.70
2019-02-19T11:57:20.874Z,9.10
2019-02-19T12:00:01.032Z,16.27
2019-02-19T12:02:41.029Z,12.87
2019-02-19T12:05:21.151Z,11.90
2019-02-19T12:08:01.247Z,10.33
2019-02-19T12:10:41.382Z,11.43
2019-02-19T12:13:21.577Z,10.40
2019-02-19T12:16:01.523Z,15.17
2019-02-19T12:18:46.283Z,14.03
2019-02-19T12:21:23.575Z,12.53
2019-02-19T12:24:03.663Z,10.57
2019-02-19T12:26:43.625Z,11.10
2019-02-19T12:29:23.697Z,8.73
2019-02-19T12:32:03.816Z,10.10
2019-02-19T12:34:43.895Z,14.77
2019-02-19T12:37:23.916Z,13.87
2019-02-19T12:40:03.975Z,8.27
2019-02-19T12:42:43.991Z,11.10
2019-02-19T12:45:24.084Z,11.73
2019-02-19T12:48:03.733Z,11.57
2019-02-19T12:50:43.967Z,13.10
2019-02-19T12:53:24.023Z,11.13
2019-02-19T12:56:03.969Z,10.53
2019-02-19T12:58:44.237Z,8.83
2019-02-19T13:01:24.028Z,8.70
2019-02-19T13:04:04.003Z,9.53
2019-02-19T13:06:44.291Z,9.07
2019-02-19T13:09:24.610Z,9.77
2019-02-19T13:12:04.648Z,9.57
2019-02-19T13:14:44.885Z,11.20
2019-02-19T13:17:24.651Z,8.43
2019-02-19T13:20:04.723Z,9.53
2019-02-19T13:22:44.715Z,7.83
2019-02-19T13:25:24.687Z,11.97
2019-02-19T13:28:04.876Z,11.17
2019-02-19T13:30:44.723Z,6.23
2019-02-19T13:33:24.716Z,6.93
2019-02-19T13:36:04.821Z,6.23
2019-02-19T13:38:44.661Z,9.27
2019-02-19T13:41:24.672Z,6.37
2019-02-19T13:44:04.552Z,6.27
2019-02-19T13:46:44.596Z,8.90
2019-02-19T13:49:24.705Z,8.23
2019-02-19T13:55:24.128Z,10.33
2019-02-19T13:58:04.133Z,7.90
2019-02-19T14:00:45.199Z,12.70
2019-02-19T14:03:25.036Z,8.23
2019-02-19T14:06:05.180Z,10.13
2019-02-19T14:08:45.377Z,12.80
2019-02-19T14:11:25.291Z,6.37
2019-02-19T14:17:12.121Z,7.40
2019-02-19T14:19:56.848Z,14.80
2019-02-19T14:22:56.990Z,11.80
2019-02-19T14:28:59.081Z,11.80
2019-02-19T14:35:03.429Z,9.53
2019-02-19T14:41:01.152Z,11.60
2019-02-19T14:44:01.934Z,10.70
2019-02-19T14:47:02.127Z,11.43
2019-02-19T14:49:53.852Z,8.87
2019-02-19T14:55:58.665Z,9.93
2019-02-19T14:59:03.928Z,10.97
2019-02-19T15:02:03.251Z,10.83
2019-02-19T15:05:02.546Z,13.37
2019-02-19T15:08:04.883Z,12.33
2019-02-19T15:11:10.932Z,8.77
2019-02-19T15:14:12.009Z,9.60
2019-02-19T15:20:16.134Z,13.07
2019-02-19T15:23:17.189Z,11.50
2019-02-19T15:26:10.784Z,8.93
2019-02-19T15:29:06.310Z,9.53
2019-02-19T15:31:55.905Z,10.37
2019-02-19T15:34:58.798Z,12.37
2019-02-19T15:38:01.013Z,10.73
2019-02-19T15:41:01.610Z,8.30
2019-02-19T15:44:03.851Z,7.03
2019-02-19T15:47:04.837Z,9.80
2019-02-19T15:53:10.188Z,9.83
2019-02-19T15:56:17.361Z,8.10
2019-02-19T15:59:14.167Z,7.87
2019-02-19T16:02:19.913Z,8.23
2019-02-19T16:05:20.326Z,11.30
2019-02-19T16:11:24.533Z,8.97
2019-02-19T16:14:16.653Z,7.97
2019-02-19T16:17:15.789Z,8.57
2019-02-19T16:20:07.597Z,7.63
2019-02-19T16:23:02.892Z,6.83
2019-02-19T16:26:08.739Z,8.53
2019-02-19T16:29:05.561Z,9.57
2019-02-19T16:31:54.556Z,12.07
2019-02-19T16:34:55.226Z,9.80
2019-02-19T16:37:55.176Z,8.47
2019-02-19T16:44:01.532Z,7.20
2019-02-19T16:50:10.713Z,7.60
2019-02-19T16:56:17.109Z,10.07
2019-02-19T16:59:22.685Z,4.97
2019-02-19T17:02:25.760Z,4.13
2019-02-19T17:05:32.198Z,5.60
2019-02-19T17:08:38.665Z,5.50
2019-02-19T17:11:44.240Z,5.17
2019-02-19T17:14:44.189Z,3.03
2019-02-19T17:17:43.284Z,2.83
2019-02-19T17:20:41.011Z,3.43
2019-02-19T17:23:40.681Z,6.00
2019-02-19T17:26:32.445Z,3.83
2019-02-19T17:29:35.137Z,7.13
2019-02-19T17:32:34.402Z,5.90
2019-02-19T17:35:33.553Z,8.60
2019-02-19T17:38:23.141Z,5.40
2019-02-19T17:41:12.319Z,6.97
2019-02-19T17:44:00.535Z,6.83
2019-02-19T17:47:02.949Z,8.23
2019-02-19T17:49:55.578Z,8.20
2019-02-19T17:52:42.365Z,7.70
2019-02-19T17:55:42.493Z,6.23
2019-02-19T17:58:29.020Z,10.33
2019-02-19T18:01:28.666Z,10.33
2019-02-19T18:04:20.030Z,7.27
2019-02-19T18:07:19.972Z,9.40
2019-02-19T18:10:19.162Z,5.87
2019-02-19T18:13:18.541Z,6.33
2019-02-19T18:16:17.847Z,6.40
2019-02-19T18:18:57.506Z,6.87
2019-02-19T18:21:37.673Z,7.13
2019-02-19T18:24:17.652Z,8.20
2019-02-19T18:26:57.735Z,10.07
2019-02-19T18:29:37.683Z,10.07
2019-02-19T18:32:17.516Z,7.00
2019-02-19T18:34:57.604Z,8.07
2019-02-19T18:37:37.650Z,8.10
2019-02-19T18:40:17.636Z,10.90
2019-02-19T18:42:57.384Z,8.27
2019-02-19T18:45:37.236Z,9.13
2019-02-19T18:48:17.287Z,10.93
2019-02-19T18:50:58.491Z,11.60
2019-02-19T18:53:38.459Z,12.07
2019-02-19T18:56:18.336Z,15.70
2019-02-19T18:58:58.605Z,10.33
2019-02-19T19:01:38.328Z,13.77
2019-02-19T19:04:18.646Z,13.00
2019-02-19T19:06:58.471Z,12.27
2019-02-19T19:09:38.412Z,7.60
2019-02-19T19:12:18.211Z,10.90
2019-02-19T19:14:58.273Z,12.27
2019-02-19T19:17:38.158Z,8.80
2019-02-19T19:20:18.242Z,9.33
2019-02-19T19:22:58.182Z,8.73
2019-02-19T19:25:38.253Z,12.23
2019-02-19T19:28:18.344Z,10.13
2019-02-19T19:30:58.422Z,8.77
2019-02-19T19:33:38.400Z,9.03
2019-02-19T19:36:18.473Z,10.57
2019-02-19T19:38:58.597Z,11.33
2019-02-19T19:41:38.856Z,10.27
2019-02-19T19:44:18.960Z,10.23
2019-02-19T19:46:59.274Z,10.13
2019-02-19T19:49:39.266Z,12.47
2019-02-19T19:52:19.191Z,8.30
2019-02-19T19:54:59.320Z,9.83
2019-02-19T19:57:39.262Z,9.27
2019-02-19T20:00:19.816Z,10.63
2019-02-19T20:02:59.509Z,11.00
2019-02-19T20:05:39.367Z,13.43
2019-02-19T20:08:19.421Z,12.17
2019-02-19T20:10:59.617Z,10.07
2019-02-19T20:13:39.359Z,12.23
2019-02-19T20:16:19.405Z,10.77
2019-02-19T20:18:59.278Z,11.80
2019-02-19T20:21:39.409Z,10.50
2019-02-19T20:24:19.579Z,11.77
2019-02-19T20:26:59.693Z,11.30
2019-02-19T20:29:40.746Z,9.77
2019-02-19T20:32:20.732Z,12.57
2019-02-19T20:35:00.964Z,8.17
2019-02-19T20:37:41.016Z,11.30
2019-02-19T20:40:21.282Z,10.03
2019-02-19T20:43:01.316Z,8.97
2019-02-19T20:45:41.285Z,8.70
2019-02-19T20:48:21.321Z,10.07
2019-02-19T20:51:01.989Z,9.93
2019-02-19T20:53:41.876Z,10.60
2019-02-19T20:56:21.796Z,10.23
2019-02-19T20:59:01.901Z,8.37
2019-02-19T21:01:41.858Z,10.17
2019-02-19T21:04:22.010Z,10.00
2019-02-19T21:07:01.932Z,13.13
2019-02-19T21:09:44.070Z,10.87
2019-02-19T21:12:24.051Z,13.67
2019-02-19T21:15:03.968Z,15.03
2019-02-19T21:17:44.177Z,10.80
2019-02-19T21:20:24.378Z,13.23
2019-02-19T21:23:04.605Z,15.50
2019-02-19T21:25:44.659Z,10.80
2019-02-19T21:28:24.878Z,12.23
2019-02-19T21:31:04.976Z,11.10
2019-02-19T21:33:45.040Z,14.27
2019-02-19T21:36:25.164Z,10.83
2019-02-19T21:39:05.382Z,11.27
2019-02-19T21:41:45.351Z,9.07
2019-02-19T21:44:25.438Z,13.53
2019-02-19T21:47:05.517Z,7.80
2019-02-19T21:49:45.561Z,9.67
2019-02-19T21:52:25.626Z,8.23
2019-02-19T21:55:05.960Z,10.00
2019-02-19T21:57:45.809Z,8.70
2019-02-19T22:00:25.967Z,8.50
2019-02-19T22:03:05.871Z,7.17
2019-02-19T22:05:45.739Z,9.17
2019-02-19T22:08:25.836Z,5.67
2019-02-19T22:11:05.878Z,12.47
2019-02-19T22:13:46.135Z,8.43
2019-02-19T22:16:26.312Z,8.87
2019-02-19T22:19:06.345Z,12.07
2019-02-19T22:22:05.684Z,6.73
2019-02-19T22:24:45.316Z,10.07
2019-02-19T22:27:25.320Z,6.80
2019-02-19T22:30:05.296Z,10.80
2019-02-19T22:32:45.291Z,8.63
2019-02-19T22:35:25.309Z,10.97
2019-02-19T22:38:05.401Z,8.33
2019-02-19T22:40:45.164Z,11.57
2019-02-19T22:43:25.171Z,11.13
2019-02-19T22:46:05.245Z,8.40
2019-02-19T22:48:45.408Z,8.23
2019-02-19T22:51:25.591Z,11.10
2019-02-19T22:57:01.886Z,9.27
2019-02-19T22:59:41.984Z,8.13
2019-02-19T23:02:23.713Z,11.53
2019-02-19T23:05:04.229Z,11.10
2019-02-19T23:07:44.093Z,11.33
2019-02-19T23:10:24.033Z,9.93
2019-02-19T23:13:03.995Z,8.13
2019-02-19T23:15:44.060Z,9.40
2019-02-19T23:18:24.138Z,7.63
2019-02-19T23:21:04.211Z,10.37
2019-02-19T23:23:44.270Z,8.53
2019-02-19T23:26:24.064Z,8.87
2019-02-19T23:29:04.353Z,12.77
2019-02-19T23:31:44.151Z,15.03
2019-02-19T23:34:24.115Z,9.23
2019-02-19T23:37:21.559Z,9.47
2019-02-19T23:40:01.563Z,12.90
2019-02-19T23:42:41.412Z,11.30
2019-02-19T23:45:21.548Z,9.70
2019-02-19T23:48:01.371Z,8.77
2019-02-19T23:50:41.155Z,11.63
2019-02-19T23:53:21.049Z,10.93
2019-02-19T23:56:01.211Z,9.23
2019-02-19T23:58:41.152Z,11.77
